createdAt,value
2022-07-29T00:00:26.117Z,55.29
2022-07-29T00:01:26.114Z,54.79
2022-07-29T00:02:26.156Z,54.79
2022-07-29T00:03:26.165Z,55.90
2022-07-29T00:04:26.153Z,54.89
2022-07-29T00:05:26.035Z,54.18
2022-07-29T00:06:26.033Z,56.30
2022-07-29T00:07:26.024Z,56.10
2022-07-29T00:08:26.035Z,55.19
2022-07-29T00:09:25.985Z,56.81
2022-07-29T00:10:25.970Z,56.20
2022-07-29T00:11:25.963Z,55.49
2022-07-29T00:12:26.726Z,56.32
2022-07-29T00:13:32.590Z,56.02
2022-07-29T00:14:26.918Z,56.02
2022-07-29T00:15:25.901Z,56.83
2022-07-29T00:16:25.998Z,57.54
2022-07-29T00:17:25.897Z,57.54
2022-07-29T00:18:25.885Z,56.63
2022-07-29T00:19:25.845Z,56.32
2022-07-29T00:20:25.836Z,57.43
2022-07-29T00:21:25.856Z,57.14
2022-07-29T00:22:25.815Z,57.54
2022-07-29T00:23:25.817Z,57.34
2022-07-29T00:24:25.801Z,57.94
2022-07-29T00:25:25.770Z,57.74
2022-07-29T00:26:25.761Z,57.74
2022-07-29T00:27:25.747Z,57.34
2022-07-29T00:28:25.745Z,57.14
2022-07-29T00:29:34.353Z,56.93
2022-07-29T00:30:26.703Z,57.94
2022-07-29T00:31:25.746Z,57.97
2022-07-29T00:32:25.677Z,57.97
2022-07-29T00:33:25.663Z,57.67
2022-07-29T00:34:25.662Z,58.47
2022-07-29T00:35:25.633Z,57.87
2022-07-29T00:36:25.625Z,56.35
2022-07-29T00:37:25.602Z,57.97
2022-07-29T00:38:25.638Z,58.54
2022-07-29T00:39:25.608Z,58.34
2022-07-29T00:40:25.563Z,58.45
2022-07-29T00:41:25.543Z,58.58
2022-07-29T00:42:25.545Z,58.17
2022-07-29T00:43:25.533Z,57.06
2022-07-29T00:44:25.514Z,58.04
2022-07-29T00:45:25.496Z,58.67
2022-07-29T00:46:25.530Z,57.97
2022-07-29T00:47:25.475Z,57.87
2022-07-29T00:48:25.470Z,58.07
2022-07-29T00:49:25.514Z,58.37
2022-07-29T00:50:25.440Z,57.67
2022-07-29T00:51:25.417Z,57.46
2022-07-29T00:52:25.408Z,57.87
2022-07-29T00:53:25.393Z,59.28
2022-07-29T00:54:25.373Z,59.18
2022-07-29T00:55:25.375Z,58.37
2022-07-29T00:56:25.357Z,58.17
2022-07-29T00:57:25.344Z,57.97
2022-07-29T00:58:25.322Z,57.87
2022-07-29T00:59:25.303Z,57.67
2022-07-29T01:00:26.365Z,58.27
2022-07-29T01:01:25.325Z,57.67
2022-07-29T01:02:25.394Z,57.87
2022-07-29T01:03:25.253Z,58.47
2022-07-29T01:04:25.243Z,58.78
2022-07-29T01:05:25.231Z,58.37
2022-07-29T01:06:26.238Z,58.70
2022-07-29T01:07:25.214Z,59.61
2022-07-29T01:08:25.196Z,58.87
2022-07-29T01:09:41.986Z,58.87
2022-07-29T01:10:26.177Z,58.87
2022-07-29T01:11:25.143Z,58.78
2022-07-29T01:12:25.143Z,59.58
2022-07-29T01:13:25.127Z,58.91
2022-07-29T01:14:25.129Z,59.00
2022-07-29T01:15:25.106Z,59.61
2022-07-29T01:16:25.116Z,59.61
2022-07-29T01:17:25.082Z,58.50
2022-07-29T01:18:25.051Z,58.20
2022-07-29T01:19:25.041Z,58.40
2022-07-29T01:20:25.034Z,58.50
2022-07-29T01:21:26.063Z,59.11
2022-07-29T01:22:25.063Z,58.40
2022-07-29T01:23:24.984Z,58.70
2022-07-29T01:24:24.984Z,57.39
2022-07-29T01:25:24.962Z,56.48
2022-07-29T01:26:24.960Z,55.57
2022-07-29T01:27:24.956Z,57.09
2022-07-29T01:28:24.913Z,56.98
2022-07-29T01:29:24.905Z,57.09
2022-07-29T01:30:24.896Z,60.02
2022-07-29T01:31:25.166Z,58.50
2022-07-29T01:32:28.773Z,57.31
2022-07-29T01:33:24.843Z,58.02
2022-07-29T01:34:24.844Z,60.45
2022-07-29T01:35:24.844Z,57.72
2022-07-29T01:36:24.851Z,58.43
2022-07-29T01:37:24.815Z,59.23
2022-07-29T01:38:24.792Z,57.42
2022-07-29T01:39:24.780Z,57.82
2022-07-29T01:40:24.772Z,59.84
2022-07-29T01:41:24.744Z,57.92
2022-07-29T01:42:24.749Z,57.72
2022-07-29T01:43:24.719Z,59.23
2022-07-29T01:44:24.702Z,59.23
2022-07-29T01:45:24.692Z,59.64
2022-07-29T01:46:24.716Z,61.16
2022-07-29T01:47:24.674Z,60.75
2022-07-29T01:48:24.642Z,60.25
2022-07-29T01:49:24.662Z,60.25
2022-07-29T01:50:24.622Z,60.65
2022-07-29T01:51:24.602Z,60.55
2022-07-29T01:52:24.623Z,58.43
2022-07-29T01:53:24.582Z,57.75
2022-07-29T01:54:24.573Z,57.72
2022-07-29T01:55:24.551Z,57.85
2022-07-29T01:56:24.542Z,57.04
2022-07-29T01:57:24.560Z,58.86
2022-07-29T01:58:24.544Z,57.82
2022-07-29T01:59:24.504Z,58.63
2022-07-29T02:00:24.495Z,57.21
2022-07-29T02:01:24.525Z,60.14
2022-07-29T02:02:24.472Z,58.73
2022-07-29T02:03:24.477Z,60.05
2022-07-29T02:04:28.948Z,59.84
2022-07-29T02:05:25.510Z,57.92
2022-07-29T02:06:24.412Z,56.71
2022-07-29T02:07:24.403Z,57.42
2022-07-29T02:08:24.399Z,56.51
2022-07-29T02:09:24.371Z,56.71
2022-07-29T02:10:26.002Z,56.07
2022-07-29T02:11:24.354Z,56.98
2022-07-29T02:12:24.366Z,58.09
2022-07-29T02:13:24.313Z,56.98
2022-07-29T02:14:24.303Z,57.89
2022-07-29T02:15:24.282Z,56.78
2022-07-29T02:16:24.329Z,55.98
2022-07-29T02:17:24.268Z,56.38
2022-07-29T02:18:24.244Z,55.36
2022-07-29T02:19:24.253Z,55.77
2022-07-29T02:20:24.225Z,56.27
2022-07-29T02:21:24.206Z,56.48
2022-07-29T02:22:24.210Z,55.27
2022-07-29T02:23:24.182Z,56.18
2022-07-29T02:24:24.163Z,56.58
2022-07-29T02:25:24.143Z,56.07
2022-07-29T02:26:24.152Z,57.39
2022-07-29T02:27:24.154Z,55.77
2022-07-29T02:28:24.119Z,55.27
2022-07-29T02:29:24.102Z,56.07
2022-07-29T02:30:24.072Z,58.12
2022-07-29T02:31:24.200Z,58.63
2022-07-29T02:32:24.062Z,59.14
2022-07-29T02:33:24.038Z,59.23
2022-07-29T02:34:24.062Z,59.14
2022-07-29T02:35:24.007Z,58.12
2022-07-29T02:36:23.993Z,56.30
2022-07-29T02:37:24.010Z,56.30
2022-07-29T02:38:23.991Z,59.14
2022-07-29T02:39:23.969Z,58.43
2022-07-29T02:40:23.961Z,56.91
2022-07-29T02:41:23.946Z,56.30
2022-07-29T02:42:23.940Z,58.12
2022-07-29T02:43:23.902Z,56.71
2022-07-29T02:44:23.894Z,56.71
2022-07-29T02:45:23.880Z,56.91
2022-07-29T02:46:29.197Z,56.61
2022-07-29T02:47:24.862Z,58.12
2022-07-29T02:48:23.840Z,59.44
2022-07-29T02:49:23.865Z,58.73
2022-07-29T02:50:23.811Z,57.01
2022-07-29T02:51:44.084Z,59.34
2022-07-29T02:52:24.792Z,57.01
2022-07-29T02:53:23.761Z,58.43
2022-07-29T02:54:23.775Z,59.84
2022-07-29T02:55:23.750Z,58.33
2022-07-29T02:56:23.740Z,56.20
2022-07-29T02:57:23.739Z,58.12
2022-07-29T02:58:23.737Z,56.71
2022-07-29T02:59:23.691Z,57.92
2022-07-29T03:00:23.684Z,57.82
2022-07-29T03:01:23.778Z,57.72
2022-07-29T03:02:23.660Z,59.54
2022-07-29T03:03:23.631Z,58.02
2022-07-29T03:04:23.695Z,57.59
2022-07-29T03:05:23.610Z,56.68
2022-07-29T03:06:28.150Z,56.68
2022-07-29T03:07:24.592Z,56.48
2022-07-29T03:08:23.590Z,56.98
2022-07-29T03:09:23.562Z,58.30
2022-07-29T03:10:23.542Z,55.36
2022-07-29T03:11:41.507Z,56.07
2022-07-29T03:12:24.531Z,58.91
2022-07-29T03:13:23.501Z,57.39
2022-07-29T03:14:23.500Z,57.69
2022-07-29T03:15:24.020Z,57.59
2022-07-29T03:16:23.533Z,56.27
2022-07-29T03:17:23.472Z,56.71
2022-07-29T03:18:23.441Z,57.82
2022-07-29T03:19:23.430Z,56.61
2022-07-29T03:20:23.420Z,57.11
2022-07-29T03:21:23.398Z,56.81
2022-07-29T03:22:23.389Z,56.61
2022-07-29T03:23:23.370Z,57.01
2022-07-29T03:24:23.362Z,57.52
2022-07-29T03:25:23.341Z,58.43
2022-07-29T03:26:23.351Z,57.72
2022-07-29T03:27:23.331Z,57.21
2022-07-29T03:28:23.300Z,57.92
2022-07-29T03:29:23.280Z,56.91
2022-07-29T03:30:23.303Z,56.71
2022-07-29T03:31:23.315Z,56.20
2022-07-29T03:32:24.039Z,58.63
2022-07-29T03:33:23.244Z,57.01
2022-07-29T03:34:23.514Z,57.31
2022-07-29T03:35:23.219Z,56.61
2022-07-29T03:36:23.208Z,56.20
2022-07-29T03:37:23.179Z,57.42
2022-07-29T03:38:23.188Z,57.39
2022-07-29T03:39:23.169Z,55.77
2022-07-29T03:40:23.152Z,57.39
2022-07-29T03:41:23.130Z,56.98
2022-07-29T03:42:23.111Z,56.48
2022-07-29T03:43:23.122Z,57.69
2022-07-29T03:44:23.107Z,57.69
2022-07-29T03:45:23.089Z,57.59
2022-07-29T03:46:23.125Z,58.91
2022-07-29T03:47:23.040Z,58.50
2022-07-29T03:48:24.040Z,58.09
2022-07-29T03:49:23.080Z,56.68
2022-07-29T03:50:23.030Z,56.38
2022-07-29T03:51:31.503Z,56.88
2022-07-29T03:52:24.000Z,58.09
2022-07-29T03:53:22.977Z,56.38
2022-07-29T03:54:22.950Z,56.88
2022-07-29T03:55:22.955Z,58.09
2022-07-29T03:56:22.930Z,57.29
2022-07-29T03:57:22.924Z,56.27
2022-07-29T03:58:22.915Z,56.88
2022-07-29T03:59:22.889Z,56.88
2022-07-29T04:00:22.880Z,57.39
2022-07-29T04:01:22.894Z,58.00
2022-07-29T04:02:26.199Z,58.50
2022-07-29T04:03:23.920Z,57.29
2022-07-29T04:04:22.818Z,57.79
2022-07-29T04:05:22.821Z,58.30
2022-07-29T04:06:22.789Z,57.18
2022-07-29T04:07:22.792Z,58.80
2022-07-29T04:08:22.768Z,58.09
2022-07-29T04:09:22.770Z,56.88
2022-07-29T04:10:28.308Z,58.60
2022-07-29T04:11:23.730Z,57.89
2022-07-29T04:12:22.710Z,56.98
2022-07-29T04:13:22.700Z,57.09
2022-07-29T04:14:22.688Z,58.20
2022-07-29T04:15:22.680Z,57.49
2022-07-29T04:16:22.745Z,56.68
2022-07-29T04:17:22.660Z,57.29
2022-07-29T04:18:22.659Z,57.59
2022-07-29T04:19:22.620Z,58.70
2022-07-29T04:20:22.633Z,56.68
2022-07-29T04:21:22.610Z,56.78
2022-07-29T04:22:22.580Z,56.65
2022-07-29T04:23:22.581Z,58.17
2022-07-29T04:24:22.549Z,59.38
2022-07-29T04:25:22.554Z,59.21
2022-07-29T04:26:22.518Z,57.89
2022-07-29T04:27:22.518Z,58.50
2022-07-29T04:28:22.500Z,57.69
2022-07-29T04:29:22.489Z,59.31
2022-07-29T04:30:22.508Z,59.00
2022-07-29T04:31:25.712Z,57.49
2022-07-29T04:32:22.439Z,56.48
2022-07-29T04:33:22.440Z,55.98
2022-07-29T04:34:22.421Z,56.18
2022-07-29T04:35:22.420Z,56.07
2022-07-29T04:36:28.720Z,57.49
2022-07-29T04:37:23.390Z,56.18
2022-07-29T04:38:22.370Z,55.87
2022-07-29T04:39:23.276Z,55.94
2022-07-29T04:40:22.350Z,55.85
2022-07-29T04:41:22.345Z,56.25
2022-07-29T04:42:25.238Z,57.46
2022-07-29T04:43:23.501Z,56.05
2022-07-29T04:44:22.289Z,55.74
2022-07-29T04:45:23.293Z,56.96
2022-07-29T04:46:22.340Z,55.85
2022-07-29T04:47:22.268Z,56.96
2022-07-29T04:48:28.189Z,55.44
2022-07-29T04:49:23.277Z,54.83
2022-07-29T04:50:22.209Z,55.32
2022-07-29T04:51:22.202Z,56.02
2022-07-29T04:52:22.191Z,57.43
2022-07-29T04:53:22.172Z,55.72
2022-07-29T04:54:22.159Z,55.82
2022-07-29T04:55:22.148Z,56.52
2022-07-29T04:56:22.129Z,56.73
2022-07-29T04:57:22.120Z,55.72
2022-07-29T04:58:22.108Z,54.68
2022-07-29T04:59:22.088Z,54.89
2022-07-29T05:00:22.087Z,55.99
2022-07-29T05:01:23.141Z,56.60
2022-07-29T05:02:22.076Z,55.90
2022-07-29T05:03:22.038Z,57.01
2022-07-29T05:04:22.017Z,56.07
2022-07-29T05:05:22.018Z,57.78
2022-07-29T05:06:21.989Z,58.39
2022-07-29T05:07:21.990Z,56.07
2022-07-29T05:08:21.986Z,56.07
2022-07-29T05:09:21.956Z,56.55
2022-07-29T05:10:21.949Z,55.84
2022-07-29T05:11:24.947Z,56.24
2022-07-29T05:12:22.911Z,56.65
2022-07-29T05:13:21.929Z,56.35
2022-07-29T05:14:21.924Z,56.02
2022-07-29T05:15:21.924Z,56.92
2022-07-29T05:16:21.924Z,56.90
2022-07-29T05:17:21.849Z,56.90
2022-07-29T05:18:21.829Z,55.39
2022-07-29T05:19:21.842Z,54.75
2022-07-29T05:20:21.817Z,53.85
2022-07-29T05:21:21.798Z,54.55
2022-07-29T05:22:21.804Z,53.55
2022-07-29T05:23:21.768Z,53.34
2022-07-29T05:24:21.760Z,54.15
2022-07-29T05:25:21.750Z,53.85
2022-07-29T05:26:21.747Z,54.25
2022-07-29T05:27:21.733Z,55.26
2022-07-29T05:28:21.711Z,55.03
2022-07-29T05:29:44.614Z,54.23
2022-07-29T05:30:22.671Z,54.03
2022-07-29T05:31:21.726Z,54.13
2022-07-29T05:32:21.639Z,53.72
2022-07-29T05:33:35.632Z,55.43
2022-07-29T05:34:22.628Z,54.73
2022-07-29T05:35:21.612Z,54.63
2022-07-29T05:36:21.591Z,53.52
2022-07-29T05:37:21.577Z,54.23
2022-07-29T05:38:21.567Z,53.42
2022-07-29T05:39:21.599Z,53.72
2022-07-29T05:40:21.599Z,53.12
2022-07-29T05:41:21.529Z,53.92
2022-07-29T05:42:21.508Z,53.52
2022-07-29T05:43:21.506Z,54.53
2022-07-29T05:44:21.501Z,54.93
2022-07-29T05:45:21.481Z,53.63
2022-07-29T05:46:21.525Z,53.42
2022-07-29T05:47:21.450Z,53.02
2022-07-29T05:48:21.450Z,52.82
2022-07-29T05:49:27.021Z,53.72
2022-07-29T05:50:22.399Z,53.60
2022-07-29T05:51:21.392Z,52.80
2022-07-29T05:52:21.370Z,54.00
2022-07-29T05:53:21.491Z,53.30
2022-07-29T05:54:21.360Z,53.50
2022-07-29T05:55:21.381Z,54.60
2022-07-29T05:56:21.326Z,54.91
2022-07-29T05:57:21.332Z,53.20
2022-07-29T05:58:21.288Z,54.71
2022-07-29T05:59:21.289Z,55.11
2022-07-29T06:00:21.269Z,55.11
2022-07-29T06:01:21.310Z,55.21
2022-07-29T06:02:21.238Z,55.41
2022-07-29T06:03:21.229Z,55.21
2022-07-29T06:04:21.488Z,55.21
2022-07-29T06:05:21.202Z,55.08
2022-07-29T06:06:21.183Z,53.97
2022-07-29T06:07:21.169Z,54.48
2022-07-29T06:08:21.172Z,54.98
2022-07-29T06:09:21.189Z,54.17
2022-07-29T06:10:23.912Z,53.07
2022-07-29T06:11:22.121Z,52.97
2022-07-29T06:12:21.108Z,54.05
2022-07-29T06:13:21.097Z,54.25
2022-07-29T06:14:21.092Z,54.05
2022-07-29T06:15:21.080Z,53.45
2022-07-29T06:16:30.261Z,54.00
2022-07-29T06:17:22.040Z,51.54
2022-07-29T06:18:21.019Z,50.67
2022-07-29T06:19:21.056Z,50.54
2022-07-29T06:20:26.984Z,50.02
2022-07-29T06:21:21.990Z,49.41
2022-07-29T06:22:20.969Z,48.22
2022-07-29T06:23:20.959Z,49.24
2022-07-29T06:24:21.032Z,49.14
2022-07-29T06:25:20.928Z,49.24
2022-07-29T06:26:30.727Z,48.94
2022-07-29T06:27:21.898Z,48.04
2022-07-29T06:28:20.888Z,48.57
2022-07-29T06:29:20.915Z,48.16
2022-07-29T06:30:20.868Z,49.96
2022-07-29T06:31:20.963Z,50.16
2022-07-29T06:32:20.860Z,49.39
2022-07-29T06:33:20.829Z,50.69
2022-07-29T06:34:20.868Z,49.58
2022-07-29T06:35:38.643Z,49.39
2022-07-29T06:36:22.941Z,50.69
2022-07-29T06:37:20.811Z,50.29
2022-07-29T06:38:30.460Z,49.99
2022-07-29T06:39:21.837Z,50.49
2022-07-29T06:40:20.730Z,49.99
2022-07-29T06:41:20.720Z,50.89
2022-07-29T06:42:20.699Z,50.79
2022-07-29T06:43:20.708Z,51.19
2022-07-29T06:44:20.789Z,50.99
2022-07-29T06:45:20.669Z,51.09
2022-07-29T06:46:20.812Z,50.49
2022-07-29T06:47:20.664Z,50.09
2022-07-29T06:48:20.641Z,50.57
2022-07-29T06:49:20.702Z,49.96
2022-07-29T06:50:20.599Z,48.86
2022-07-29T06:51:21.801Z,48.76
2022-07-29T06:52:20.579Z,49.44
2022-07-29T06:53:20.570Z,49.22
2022-07-29T06:54:20.547Z,49.69
2022-07-29T06:55:25.172Z,48.97
2022-07-29T06:56:20.519Z,48.45
2022-07-29T06:57:20.510Z,46.20
2022-07-29T06:58:20.501Z,45.59
2022-07-29T06:59:26.209Z,45.47
2022-07-29T07:00:21.517Z,45.64
2022-07-29T07:01:20.504Z,44.94
2022-07-29T07:02:20.496Z,44.62
2022-07-29T07:03:20.450Z,44.20
2022-07-29T07:04:20.950Z,43.76
2022-07-29T07:05:20.427Z,42.53
2022-07-29T07:06:20.389Z,42.03
2022-07-29T07:07:20.398Z,41.36
2022-07-29T07:08:20.381Z,42.45
2022-07-29T07:09:20.352Z,42.47
2022-07-29T07:10:20.334Z,42.67
2022-07-29T07:11:20.319Z,43.46
2022-07-29T07:12:20.321Z,44.08
2022-07-29T07:13:20.304Z,42.99
2022-07-29T07:14:21.068Z,42.79
2022-07-29T07:15:20.270Z,44.08
2022-07-29T07:16:20.279Z,42.89
2022-07-29T07:17:20.251Z,43.49
2022-07-29T07:18:20.236Z,42.89
2022-07-29T07:19:20.236Z,42.19
2022-07-29T07:20:20.224Z,42.89
2022-07-29T07:21:20.190Z,44.18
2022-07-29T07:22:20.191Z,43.80
2022-07-29T07:23:20.170Z,44.60
2022-07-29T07:24:20.161Z,43.90
2022-07-29T07:25:20.182Z,43.90
2022-07-29T07:26:20.129Z,44.01
2022-07-29T07:27:20.130Z,44.40
2022-07-29T07:28:24.918Z,45.30
2022-07-29T07:29:21.082Z,44.50
2022-07-29T07:30:20.079Z,44.78
2022-07-29T07:31:20.136Z,45.28
2022-07-29T07:32:20.139Z,44.38
2022-07-29T07:33:20.035Z,43.96
2022-07-29T07:34:29.504Z,43.32
2022-07-29T07:35:21.003Z,42.79
2022-07-29T07:36:19.984Z,43.22
2022-07-29T07:37:19.997Z,41.71
2022-07-29T07:38:19.986Z,40.48
2022-07-29T07:39:19.952Z,39.26
2022-07-29T07:40:19.946Z,38.17
2022-07-29T07:41:19.926Z,38.53
2022-07-29T07:42:19.962Z,37.92
2022-07-29T07:43:19.902Z,37.90
2022-07-29T07:44:20.393Z,37.90
2022-07-29T07:45:19.884Z,37.30
2022-07-29T07:46:19.886Z,37.32
2022-07-29T07:47:19.853Z,37.92
2022-07-29T07:48:19.834Z,37.92
2022-07-29T07:49:19.922Z,37.62
2022-07-29T07:50:19.807Z,37.13
2022-07-29T07:51:19.802Z,36.54
2022-07-29T07:52:19.805Z,37.01
2022-07-29T07:53:19.784Z,37.11
2022-07-29T07:54:20.825Z,36.12
2022-07-29T07:55:19.741Z,37.59
2022-07-29T07:56:19.734Z,38.08
2022-07-29T07:57:19.733Z,37.98
2022-07-29T07:58:19.711Z,35.79
2022-07-29T07:59:19.696Z,36.78
2022-07-29T08:00:19.673Z,35.28
2022-07-29T08:01:19.702Z,35.08
2022-07-29T08:02:19.797Z,35.27
2022-07-29T08:03:19.643Z,35.84
2022-07-29T08:04:25.000Z,35.92
2022-07-29T08:05:20.614Z,35.41
2022-07-29T08:06:19.595Z,34.99
2022-07-29T08:07:19.596Z,33.39
2022-07-29T08:08:19.597Z,34.06
2022-07-29T08:09:28.686Z,35.23
2022-07-29T08:10:20.563Z,33.53
2022-07-29T08:11:19.534Z,32.43
2022-07-29T08:12:19.533Z,33.10
2022-07-29T08:13:19.507Z,32.10
2022-07-29T08:14:19.686Z,30.62
2022-07-29T08:15:19.481Z,30.33
2022-07-29T08:16:19.487Z,29.45
2022-07-29T08:17:19.478Z,30.51
2022-07-29T08:18:19.436Z,31.39
2022-07-29T08:19:19.461Z,31.96
2022-07-29T08:20:19.512Z,30.97
2022-07-29T08:21:19.414Z,29.49
2022-07-29T08:22:19.408Z,30.18
2022-07-29T08:23:19.412Z,30.27
2022-07-29T08:24:19.361Z,29.98
2022-07-29T08:25:19.377Z,28.69
2022-07-29T08:26:19.368Z,29.88
2022-07-29T08:27:41.993Z,29.88
2022-07-29T08:28:20.369Z,30.26
2022-07-29T08:29:20.178Z,29.77
2022-07-29T08:30:19.350Z,28.32
2022-07-29T08:31:19.352Z,29.49
2022-07-29T08:32:43.523Z,29.96
2022-07-29T08:33:20.249Z,28.79
2022-07-29T08:34:19.256Z,29.47
2022-07-29T08:35:20.220Z,28.79
2022-07-29T08:36:19.219Z,29.88
2022-07-29T08:37:19.211Z,29.98
2022-07-29T08:38:19.209Z,29.00
2022-07-29T08:39:19.169Z,29.28
2022-07-29T08:40:19.182Z,28.99
2022-07-29T08:41:19.139Z,28.20
2022-07-29T08:42:19.147Z,28.59
2022-07-29T08:43:19.141Z,28.50
2022-07-29T08:44:22.440Z,29.47
2022-07-29T08:45:20.095Z,29.95
2022-07-29T08:46:19.172Z,29.64
2022-07-29T08:47:19.083Z,29.25
2022-07-29T08:48:19.065Z,29.53
2022-07-29T08:49:19.101Z,28.55
2022-07-29T08:50:19.075Z,27.29
2022-07-29T08:51:19.042Z,28.55
2022-07-29T08:52:19.015Z,28.85
2022-07-29T08:53:18.997Z,28.26
2022-07-29T08:54:18.976Z,27.79
2022-07-29T08:55:21.403Z,27.69
2022-07-29T08:56:19.053Z,27.22
2022-07-29T08:57:18.984Z,28.50
2022-07-29T08:58:23.089Z,28.42
2022-07-29T08:59:18.922Z,28.14
2022-07-29T09:00:18.956Z,28.92
2022-07-29T09:01:18.931Z,28.23
2022-07-29T09:02:18.885Z,29.91
2022-07-29T09:03:18.957Z,29.22
2022-07-29T09:04:18.854Z,29.04
2022-07-29T09:05:18.842Z,29.06
2022-07-29T09:06:18.828Z,29.95
2022-07-29T09:07:18.815Z,30.25
2022-07-29T09:08:18.800Z,29.46
2022-07-29T09:09:18.785Z,29.66
2022-07-29T09:10:18.788Z,30.74
2022-07-29T09:11:18.769Z,30.25
2022-07-29T09:12:29.036Z,31.21
2022-07-29T09:13:19.738Z,30.02
2022-07-29T09:14:18.729Z,29.93
2022-07-29T09:15:18.710Z,28.45
2022-07-29T09:16:37.206Z,29.34
2022-07-29T09:17:19.696Z,30.12
2022-07-29T09:18:20.480Z,28.85
2022-07-29T09:19:19.659Z,29.06
2022-07-29T09:20:18.734Z,29.85
2022-07-29T09:21:18.662Z,29.68
2022-07-29T09:22:18.618Z,30.18
2022-07-29T09:23:23.448Z,30.68
2022-07-29T09:24:19.679Z,30.88
2022-07-29T09:25:18.578Z,30.49
2022-07-29T09:26:18.579Z,30.58
2022-07-29T09:27:18.561Z,31.87
2022-07-29T09:28:18.542Z,31.27
2022-07-29T09:29:18.573Z,31.57
2022-07-29T09:30:25.544Z,31.86
2022-07-29T09:31:19.592Z,30.88
2022-07-29T09:32:18.489Z,31.47
2022-07-29T09:33:18.485Z,31.19
2022-07-29T09:34:18.477Z,31.38
2022-07-29T09:35:18.444Z,32.27
2022-07-29T09:36:18.453Z,32.35
2022-07-29T09:37:18.424Z,31.67
2022-07-29T09:38:18.413Z,31.37
2022-07-29T09:39:18.411Z,31.67
2022-07-29T09:40:18.402Z,32.35
2022-07-29T09:41:18.425Z,31.27
2022-07-29T09:42:18.363Z,30.49
2022-07-29T09:43:18.355Z,30.58
2022-07-29T09:44:18.351Z,30.98
2022-07-29T09:45:18.321Z,30.90
2022-07-29T09:46:18.397Z,31.77
2022-07-29T09:47:18.311Z,31.79
2022-07-29T09:48:18.284Z,31.40
2022-07-29T09:49:18.531Z,31.90
2022-07-29T09:50:18.276Z,31.32
2022-07-29T09:51:20.565Z,32.79
2022-07-29T09:52:18.227Z,32.59
2022-07-29T09:53:18.209Z,32.79
2022-07-29T09:54:18.242Z,32.20
2022-07-29T09:55:18.567Z,31.01
2022-07-29T09:56:18.176Z,32.76
2022-07-29T09:57:18.195Z,32.56
2022-07-29T09:58:18.146Z,31.47
2022-07-29T09:59:18.137Z,29.90
2022-07-29T10:00:18.142Z,30.49
2022-07-29T10:01:18.150Z,31.27
2022-07-29T10:02:23.571Z,31.57
2022-07-29T10:03:19.143Z,31.48
2022-07-29T10:04:18.079Z,30.81
2022-07-29T10:05:18.079Z,32.79
2022-07-29T10:06:18.047Z,32.38
2022-07-29T10:07:18.029Z,31.40
2022-07-29T10:08:18.052Z,31.01
2022-07-29T10:09:18.021Z,31.79
2022-07-29T10:10:18.029Z,31.99
2022-07-29T10:11:17.981Z,31.30
2022-07-29T10:12:17.969Z,31.87
2022-07-29T10:13:17.958Z,31.09
2022-07-29T10:14:17.939Z,31.38
2022-07-29T10:15:17.976Z,31.67
2022-07-29T10:16:17.979Z,31.76
2022-07-29T10:17:17.900Z,31.74
2022-07-29T10:18:17.995Z,32.23
2022-07-29T10:19:17.893Z,31.74
2022-07-29T10:20:17.927Z,31.45
2022-07-29T10:21:22.588Z,31.74
2022-07-29T10:22:36.911Z,30.87
2022-07-29T10:23:18.822Z,31.26
2022-07-29T10:24:17.867Z,31.55
2022-07-29T10:25:17.813Z,31.93
2022-07-29T10:26:17.812Z,31.63
2022-07-29T10:27:17.771Z,32.03
2022-07-29T10:28:17.762Z,30.96
2022-07-29T10:29:17.763Z,29.98
2022-07-29T10:30:17.748Z,31.65
2022-07-29T10:31:17.760Z,30.67
2022-07-29T10:32:17.713Z,30.47
2022-07-29T10:33:17.705Z,29.59
2022-07-29T10:34:17.899Z,30.87
2022-07-29T10:35:17.673Z,30.68
2022-07-29T10:36:18.618Z,29.31
2022-07-29T10:37:17.641Z,28.82
2022-07-29T10:38:17.634Z,29.60
2022-07-29T10:39:17.636Z,29.59
2022-07-29T10:40:17.611Z,29.20
2022-07-29T10:41:19.581Z,30.47
2022-07-29T10:42:20.107Z,31.16
2022-07-29T10:43:18.571Z,30.55
2022-07-29T10:44:19.341Z,29.28
2022-07-29T10:45:17.562Z,30.65
2022-07-29T10:46:17.592Z,30.26
2022-07-29T10:47:17.514Z,29.68
2022-07-29T10:48:17.502Z,29.27
2022-07-29T10:49:17.576Z,30.54
2022-07-29T10:50:17.594Z,30.25
2022-07-29T10:51:18.064Z,32.10
2022-07-29T10:52:17.455Z,32.19
2022-07-29T10:53:17.445Z,31.90
2022-07-29T10:54:17.447Z,30.33
2022-07-29T10:55:17.406Z,31.10
2022-07-29T10:56:17.487Z,32.17
2022-07-29T10:57:17.413Z,30.61
2022-07-29T10:58:17.951Z,32.46
2022-07-29T10:59:17.367Z,29.81
2022-07-29T11:00:17.387Z,29.32
2022-07-29T11:01:17.336Z,30.40
2022-07-29T11:02:41.531Z,30.49
2022-07-29T11:03:18.335Z,30.10
2022-07-29T11:04:17.307Z,31.38
2022-07-29T11:05:17.286Z,29.83
2022-07-29T11:06:17.278Z,29.93
2022-07-29T11:07:17.335Z,31.20
2022-07-29T11:08:20.331Z,31.21
2022-07-29T11:09:17.240Z,30.43
2022-07-29T11:10:17.229Z,32.37
2022-07-29T11:11:17.529Z,31.59
2022-07-29T11:12:17.202Z,31.29
2022-07-29T11:13:17.231Z,30.80
2022-07-29T11:14:17.193Z,30.51
2022-07-29T11:15:17.158Z,30.02
2022-07-29T11:16:17.149Z,29.63
2022-07-29T11:17:17.130Z,31.39
2022-07-29T11:18:17.451Z,30.51
2022-07-29T11:19:26.298Z,30.61
2022-07-29T11:20:18.101Z,30.41
2022-07-29T11:21:17.079Z,30.30
2022-07-29T11:22:18.080Z,29.42
2022-07-29T11:23:17.058Z,31.46
2022-07-29T11:24:28.528Z,31.46
2022-07-29T11:25:18.031Z,30.66
2022-07-29T11:26:18.611Z,28.52
2022-07-29T11:27:19.907Z,29.39
2022-07-29T11:28:22.879Z,30.66
2022-07-29T11:29:18.004Z,31.74
2022-07-29T11:30:16.970Z,31.43
2022-07-29T11:31:16.959Z,28.99
2022-07-29T11:32:18.412Z,29.47
2022-07-29T11:33:17.932Z,29.57
2022-07-29T11:34:17.981Z,30.16
2022-07-29T11:35:18.606Z,30.63
2022-07-29T11:36:17.144Z,28.00
2022-07-29T11:38:17.872Z,31.12
2022-07-29T11:39:16.889Z,31.41
2022-07-29T11:40:16.844Z,30.16
2022-07-29T11:41:16.833Z,28.69
2022-07-29T11:42:16.814Z,29.77
2022-07-29T11:43:16.813Z,28.69
2022-07-29T11:44:18.056Z,28.20
2022-07-29T11:45:42.848Z,30.35
2022-07-29T11:46:17.801Z,30.35
2022-07-29T11:47:17.769Z,30.37
2022-07-29T11:48:28.864Z,32.03
2022-07-29T11:49:17.760Z,29.69
2022-07-29T11:50:17.728Z,30.76
2022-07-29T11:51:16.715Z,29.79
2022-07-29T11:52:16.745Z,32.13
2022-07-29T11:53:16.726Z,32.60
2022-07-29T11:54:16.671Z,28.79
2022-07-29T11:55:16.655Z,28.40
2022-07-29T11:56:17.149Z,31.43
2022-07-29T11:57:16.626Z,32.11
2022-07-29T11:58:16.662Z,32.21
2022-07-29T11:59:16.607Z,29.08
2022-07-29T12:00:18.725Z,31.33
2022-07-29T12:01:16.567Z,31.43
2022-07-29T12:02:37.540Z,30.16
2022-07-29T12:03:17.565Z,28.99
2022-07-29T12:04:16.547Z,30.35
2022-07-29T12:05:22.221Z,30.74
2022-07-29T12:06:18.542Z,30.84
2022-07-29T12:07:16.518Z,29.47
2022-07-29T12:08:16.507Z,32.68
2022-07-29T12:09:16.487Z,31.41
2022-07-29T12:10:19.886Z,29.66
2022-07-29T12:11:17.457Z,30.83
2022-07-29T12:12:16.453Z,30.54
2022-07-29T12:13:16.443Z,31.51
2022-07-29T12:14:16.420Z,30.44
2022-07-29T12:15:16.399Z,31.33
2022-07-29T12:16:16.485Z,31.04
2022-07-29T12:17:17.376Z,30.94
2022-07-29T12:18:16.429Z,31.82
2022-07-29T12:19:16.368Z,29.47
2022-07-29T12:20:16.350Z,32.60
2022-07-29T12:21:16.321Z,32.97
2022-07-29T12:22:16.319Z,31.02
2022-07-29T12:23:16.352Z,31.30
2022-07-29T12:24:16.330Z,31.79
2022-07-29T12:25:32.278Z,32.45
2022-07-29T12:26:21.959Z,31.48
2022-07-29T12:27:17.254Z,32.53
2022-07-29T12:28:16.261Z,31.76
2022-07-29T12:29:19.968Z,29.03
2022-07-29T12:30:17.457Z,28.83
2022-07-29T12:31:43.734Z,28.07
2022-07-29T12:32:19.775Z,29.92
2022-07-29T12:33:16.184Z,29.44
2022-07-29T12:34:16.165Z,30.91
2022-07-29T12:35:16.154Z,30.91
2022-07-29T12:36:17.892Z,28.49
2022-07-29T12:37:16.137Z,30.63
2022-07-29T12:38:16.132Z,30.71
2022-07-29T12:39:16.111Z,28.38
2022-07-29T12:40:16.113Z,28.18
2022-07-29T12:41:16.074Z,28.19
2022-07-29T12:42:18.698Z,28.32
2022-07-29T12:43:16.070Z,28.83
2022-07-29T12:44:16.066Z,29.91
2022-07-29T12:45:16.047Z,32.45
2022-07-29T12:46:16.154Z,33.31
2022-07-29T12:47:16.004Z,32.82
2022-07-29T12:48:15.994Z,32.82
2022-07-29T12:49:16.038Z,32.81
2022-07-29T12:50:15.967Z,31.93
2022-07-29T12:51:15.954Z,32.52
2022-07-29T12:52:15.936Z,32.23
2022-07-29T12:53:15.947Z,31.93